FW7635 E. Wareham MA US current weather conditions

sailwx.info

Wind from 029 at 5 knots gusting 6

Air temperature 8.9° C
Dewpoint 4.3° C

Last reported at 2020-Oct-25 20:05 UTC.
Time now 2020-Oct-26 04:11 UTC

Location: N 41°48' W 070°38'.
View on Google Maps.

See reports from other nearby stations

  
Tides and Currents Weather Stations Pressure Air Temp Water Temp Dewpoint Dewpoint Depression Visibility Wind Speed Wind Dir Waves Ship Positions
date/time (UTC)wind fromknots sea level pressurealtimeterstation pressurevisibilityair tempwater tempwave heightnotes
2020-Oct-25 20:05 029 5 gusting 6 8.9
2020-Oct-25 20:00 024 1 gusting 6 8.9
2020-Oct-25 18:05
2020-Oct-25 17:05 022 5 9.4
2020-Oct-25 17:00 008 1 9.4
2020-Oct-25 16:00
2020-Oct-25 15:05 018 5 10.0
2020-Oct-25 15:00 10.0
2020-Oct-25 14:05
2020-Oct-25 13:05
2020-Oct-25 12:10
2020-Oct-25 12:05
2020-Oct-25 12:00
2020-Oct-25 11:05 331 0 gusting 2 5.6
2020-Oct-25 10:10
2020-Oct-25 10:05
2020-Oct-25 09:10 022 1 7.2
2020-Oct-25 09:05 008 1 7.2
2020-Oct-25 09:00 003 1 7.2
2020-Oct-25 08:10 001 2 7.2
2020-Oct-25 08:05 013 3 7.2
2020-Oct-25 07:55 008 0 7.2
2020-Oct-25 07:50 023 2 7.2
2020-Oct-25 07:45 019 3 6.7
2020-Oct-25 07:40 020 2 6.7
2020-Oct-25 07:35 013 1 6.7
2020-Oct-25 07:30 351 1 6.7
2020-Oct-25 07:25 358 1 6.7
2020-Oct-25 07:20 008 0 6.7
2020-Oct-25 07:10 349 2 6.7
2020-Oct-25 07:00 004 0 6.7
2020-Oct-25 06:50 337 1 6.7
2020-Oct-25 06:45 357 0 7.2
2020-Oct-25 06:35 015 0 7.2
2020-Oct-25 06:25 346 2 7.2
2020-Oct-25 06:20 009 1 7.2
2020-Oct-25 06:15 017 1 7.2
2020-Oct-25 06:10 025 2 7.2
2020-Oct-25 06:05 001 0 7.2
2020-Oct-25 05:55 350 1 7.8
2020-Oct-25 05:50 356 1 7.8
2020-Oct-25 05:40 346 3 7.8
2020-Oct-25 05:35 016 2 7.8
2020-Oct-25 05:25 036 2 7.8
2020-Oct-25 05:20 008 4 7.8
2020-Oct-25 05:15 356 2 gusting 6 7.8
2020-Oct-25 05:10 353 4 gusting 6 8.3
2020-Oct-25 05:05 334 2 gusting 6 8.3
2020-Oct-25 04:55 339 4 gusting 10 8.3
2020-Oct-25 04:50 356 2 gusting 10 8.3
2020-Oct-25 04:45 003 4 gusting 8 8.3
2020-Oct-25 04:35 008 4 gusting 12 8.3
2020-Oct-25 04:25 319 4 gusting 7 8.9
2020-Oct-25 04:20 012 3 gusting 7 8.9
2020-Oct-25 04:15 019 2 gusting 10 8.9
2020-Oct-25 04:10 343 3 gusting 6 9.4
2020-Oct-25 04:05 343 2 gusting 6 9.4
2020-Oct-25 04:00 342 4 gusting 10 9.4
2020-Oct-25 03:55 335 5 gusting 7 10.0
2020-Oct-25 03:45 343 2 gusting 6 10.6
2020-Oct-25 03:40 006 6 gusting 10 10.6
2020-Oct-25 03:35 031 2 gusting 6 10.6
2020-Oct-25 03:25 003 5 gusting 11 11.1
2020-Oct-25 03:15 005 4 gusting 6 11.7
2020-Oct-25 03:10 023 4 gusting 6 11.7
2020-Oct-25 03:05 333 3 gusting 6 11.7
2020-Oct-25 02:55 338 3 gusting 6 11.7
2020-Oct-25 02:50 351 3 gusting 10 11.7
2020-Oct-25 02:40 313 2 gusting 10 12.2
2020-Oct-25 02:35 034 5 gusting 11 12.2
2020-Oct-25 02:25 356 2 gusting 7 12.8
2020-Oct-25 02:15 012 3 gusting 11 12.8
2020-Oct-25 02:10 359 5 gusting 8 13.3
2020-Oct-25 02:05 338 3 gusting 7 13.3
2020-Oct-25 01:55 352 2 gusting 6 13.3
2020-Oct-25 01:45 006 4 gusting 13 13.9
2020-Oct-25 01:40 357 1 gusting 6 13.9
2020-Oct-25 01:35 022 2 gusting 7 13.9
2020-Oct-25 01:25 348 2 gusting 6 14.4
2020-Oct-25 01:20 341 4 gusting 6 14.4
2020-Oct-25 01:15 358 4 gusting 8 14.4
2020-Oct-25 01:10 006 5 gusting 8 15.0
2020-Oct-25 01:05 014 5 gusting 10 15.0
2020-Oct-25 00:55 017 4 gusting 8 15.0
2020-Oct-25 00:50 012 4 gusting 7 15.0
2020-Oct-25 00:40 024 4 gusting 7 15.6
2020-Oct-25 00:35 024 4 gusting 8 15.6
2020-Oct-25 00:25 023 5 gusting 7 15.6
2020-Oct-25 00:20 030 5 gusting 10 16.1
2020-Oct-25 00:15 180 16.1
2020-Oct-25 00:10 180 16.1
2020-Oct-25 00:05 180 16.1
2020-Oct-24 23:55 180 16.1
2020-Oct-24 23:45 180 16.1
2020-Oct-24 23:40 180 16.7
2020-Oct-24 23:35 180 16.7
2020-Oct-24 23:25 180 16.7
2020-Oct-24 23:20 180 16.7
2020-Oct-24 23:10 241 16.7
2020-Oct-24 23:00 215 16.7
2020-Oct-24 22:55 170 16.7
2020-Oct-24 22:50 273 16.7
2020-Oct-24 22:45 278 16.7
2020-Oct-24 22:40 290 16.7
2020-Oct-24 22:35 290 16.7
2020-Oct-24 22:30 290 16.7
2020-Oct-24 22:25 290 16.7
2020-Oct-24 22:20 149 16.7
2020-Oct-24 22:15 149 16.7
2020-Oct-24 22:10 149 16.7
2020-Oct-24 22:05 149 16.7
2020-Oct-24 22:00 149 16.7
2020-Oct-24 21:55 149 16.7
2020-Oct-24 21:50 149 16.7
2020-Oct-24 21:40 149 16.7
2020-Oct-24 21:35 149 16.7
2020-Oct-24 21:25 252 17.2
2020-Oct-24 21:15 189 0 gusting 2 17.2
2020-Oct-24 21:10 191 17.2
2020-Oct-24 21:05 192 0 gusting 0 17.2
2020-Oct-24 20:55 202 17.2
2020-Oct-24 20:50 220 17.2
2020-Oct-24 20:45 216 0 gusting 2 17.2
2020-Oct-24 20:40 222 0 gusting 4 17.2
2020-Oct-24 20:35 224 0 gusting 2 17.2
2020-Oct-24 20:30 155 1 gusting 2 17.2
2020-Oct-24 20:25 203 17.2
2020-Oct-24 20:15 225 17.8
2020-Oct-24 20:10 221 17.8
2020-Oct-24 20:05 215 17.8
2020-Oct-24 20:00 165 18.3
2020-Oct-24 19:55 169 0 gusting 2 18.3
2020-Oct-24 19:45 194 18.3
2020-Oct-24 19:40 243 0 gusting 2 18.3
2020-Oct-24 19:35 275 0 gusting 5 18.3
2020-Oct-24 19:25 206 1 gusting 4 17.8
2020-Oct-24 19:20 253 0 gusting 4 17.8
2020-Oct-24 19:15 195 0 gusting 2 17.8
2020-Oct-24 19:10 200 1 gusting 6 17.8
2020-Oct-24 19:05 169 17.8
2020-Oct-24 18:55 199 1 gusting 6 17.2
2020-Oct-24 18:50 195 1 gusting 5 17.2
2020-Oct-24 18:40 348 17.2
2020-Oct-24 18:35 16.7
2020-Oct-24 18:30 16.7
2020-Oct-24 18:20 16.7
2020-Oct-24 18:15 16.7
2020-Oct-24 18:05 17.2
2020-Oct-24 17:55 008 0 gusting 2 17.2
2020-Oct-24 17:50 199 1 gusting 4 17.2
2020-Oct-24 17:40 220 0 gusting 2 17.2
2020-Oct-24 17:35 211 0 gusting 4 17.2
2020-Oct-24 17:25 174 17.2
2020-Oct-24 17:20 181 17.2
2020-Oct-24 17:15 202 0 gusting 2 17.2
2020-Oct-24 17:10 220 1 gusting 5 17.2
2020-Oct-24 17:05 253 1 gusting 6 16.7
2020-Oct-24 16:55 198 1 gusting 7 16.7
2020-Oct-24 16:50 239 1 gusting 7 17.2
2020-Oct-24 16:45 183 2 gusting 5 17.2
2020-Oct-24 16:40 203 1 gusting 7 17.2
2020-Oct-24 16:35 231 0 gusting 7 17.2
2020-Oct-24 16:30 231 1 gusting 7 17.2
2020-Oct-24 16:25 259 2 gusting 10 17.2
2020-Oct-24 16:20 229 1 gusting 6 17.2
2020-Oct-24 16:15 209 1 gusting 6 17.2
2020-Oct-24 16:00 230 3 gusting 6 17.2
2020-Oct-24 15:55 213 1 gusting 7 17.8
2020-Oct-24 15:45 216 1 gusting 5 17.2
2020-Oct-24 15:40 167 1 gusting 6 17.2
2020-Oct-24 15:35 219 0 gusting 6 17.2
2020-Oct-24 14:45 240 2 gusting 6 16.7
2020-Oct-24 13:55 212 16.1
2020-Oct-24 13:50 179 0 gusting 2 15.6
2020-Oct-24 13:40 172 0 gusting 4 15.6
2020-Oct-24 13:35 200 0 gusting 4 15.0
2020-Oct-24 13:25 139 1 gusting 2 15.0
2020-Oct-24 13:20 221 14.4
2020-Oct-24 13:10 285 13.9
2020-Oct-24 13:05 285 13.9
2020-Oct-24 13:00 267 13.9
2020-Oct-24 12:55 269 0 gusting 1 13.9
2020-Oct-24 12:50 204 13.9
2020-Oct-24 12:45 260 0 gusting 2 13.3
2020-Oct-24 12:40 215 13.3
2020-Oct-24 12:35 184 12.8
2020-Oct-24 12:30 191 12.2